| Date | Time | Temp. (oF) | Dew Point (oF) | Rel. Hum. (%) | Press. (in.) | Wind Dir. | Wind Speed (mph) | Hourly Rainfall (in.) |
|
|---|---|---|---|---|---|---|---|---|---|
| 1 | 02/03 | 00:00 | 18 | 7 | 63 | 30.09 | WSW | 7 | 0.00 |
| 2 | 02/02 | 23:00 | 19 | 8 | 63 | 30.04 | W | 5 | 0.00 |
| 3 | 02/02 | 22:00 | 20 | 9 | 64 | 29.99 | N | 10 | 0.00 |
| 4 | 02/02 | 21:00 | 22 | 11 | 64 | 29.95 | W | 12 | 0.00 |
| 5 | 02/02 | 20:00 | 23 | 12 | 65 | 29.88 | W | 13 | 0.00 |
| 6 | 02/02 | 19:00 | 24 | 13 | 64 | 29.82 | W | 11 | 0.00 |
| 7 | 02/02 | 18:00 | 25 | 14 | 64 | 29.75 | W | 17 | 0.00 |
| 8 | 02/02 | 17:00 | 27 | 16 | 64 | 29.67 | W | 16 | 0.00 |
| 9 | 02/02 | 16:00 | 29 | 19 | 68 | 29.57 | WNW | 21 | 0.00 |
| 10 | 02/02 | 15:00 | 35 | 25 | 68 | 29.49 | N | 18 | 0.00 |
| 11 | 02/02 | 14:00 | 39 | 35 | 86 | 29.40 | NNW | 8 | 0.00 |
| 12 | 02/02 | 13:00 | 37 | 36 | 97 | 29.35 | N | 5 | 0.00 |
| 13 | 02/02 | 12:00 | 35 | 33 | 94 | 29.41 | SSW | 2 | 0.00 |
| 14 | 02/02 | 11:00 | 34 | 32 | 93 | 29.44 | W | 4 | 0.00 |
| 15 | 02/02 | 10:00 | 35 | 32 | 92 | 29.43 | N | 0 | 0.02 |
| 16 | 02/02 | 09:00 | 34 | 32 | 93 | 29.43 | N | 0 | 0.00 |
| 17 | 02/02 | 08:00 | 33 | 31 | 94 | 29.43 | NNE | 5 | 0.00 |
| 18 | 02/02 | 07:00 | 33 | 31 | 95 | 29.45 | ESE | 1 | 0.02 |
| 19 | 02/02 | 06:00 | 33 | 31 | 95 | 29.48 | ENE | 2 | 0.03 |
| 20 | 02/02 | 05:00 | 33 | 31 | 96 | 29.52 | NE | 1 | 0.02 |
| 21 | 02/02 | 04:00 | 33 | 31 | 96 | 29.57 | E | 2 | 0.01 |
| 22 | 02/02 | 03:00 | 32 | 30 | 96 | 29.63 | ENE | 1 | 0.07 |
| 23 | 02/02 | 02:00 | 31 | 30 | 97 | 29.69 | SE | 5 | 0.07 |
| 24 | 02/02 | 01:00 | 31 | 30 | 97 | 29.74 | SE | 4 | 0.04 |